createdAt,value
2019-02-24T00:00:10.974Z,-0.7
2019-02-24T00:17:20.210Z,-0.8
2019-02-24T00:30:11.078Z,-0.8
2019-02-24T00:45:11.121Z,-1
2019-02-24T01:00:11.153Z,-1
2019-02-24T01:17:20.656Z,-1
2019-02-24T01:30:11.197Z,-1.2
2019-02-24T01:45:11.235Z,-1.3
2019-02-24T02:00:11.312Z,-1.4
2019-02-24T02:15:11.336Z,-1.4
2019-02-24T02:30:11.526Z,-1.4
2019-02-24T02:45:11.393Z,-1.5
2019-02-24T03:00:11.469Z,-1.5
2019-02-24T03:15:11.461Z,-1.5
2019-02-24T03:30:11.539Z,-1.6
2019-02-24T03:45:11.775Z,-1.7
2019-02-24T04:00:11.640Z,-1.9
2019-02-24T04:15:08.398Z,-2
2019-02-24T04:30:08.300Z,-2
2019-02-24T04:45:08.268Z,-2.2
2019-02-24T05:00:08.315Z,-2.1
2019-02-24T05:30:10.401Z,-2.5
2019-02-24T05:45:10.435Z,-2.5
2019-02-24T06:00:10.496Z,-2.4
2019-02-24T06:15:10.514Z,-2.5
2019-02-24T06:30:10.577Z,-2.5
2019-02-24T06:45:10.587Z,-2.3
2019-02-24T07:00:14.530Z,-2.4
2019-02-24T07:15:10.632Z,-2.3
2019-02-24T07:30:10.700Z,-2.2
2019-02-24T07:45:10.731Z,-2.1
2019-02-24T08:00:10.843Z,-1.9
2019-02-24T08:15:10.823Z,-1.8
2019-02-24T08:30:10.930Z,-1.2
2019-02-24T08:45:10.979Z,-0.6
2019-02-24T09:00:10.979Z,-0.1
2019-02-24T09:15:10.985Z,0.6
2019-02-24T09:30:10.968Z,0.9
2019-02-24T09:45:11.090Z,1.5
2019-02-24T10:00:11.583Z,2
2019-02-24T10:15:11.690Z,2.4
2019-02-24T10:30:11.604Z,2.9
2019-02-24T10:45:11.752Z,3.2
2019-02-24T11:00:11.764Z,3.5
2019-02-24T11:15:11.734Z,3.8
2019-02-24T11:30:11.809Z,4.2
2019-02-24T11:45:11.890Z,4.5
2019-02-24T12:00:12.007Z,4.7
2019-02-24T12:15:11.910Z,4.9
2019-02-24T12:30:11.977Z,5
2019-02-24T12:45:11.977Z,5.3
2019-02-24T13:00:12.044Z,5.6
2019-02-24T13:15:12.065Z,5.7
2019-02-24T13:30:12.086Z,5.8
2019-02-24T13:45:12.114Z,5.7
2019-02-24T14:00:12.239Z,5.6
2019-02-24T14:15:12.258Z,5.5
2019-02-24T14:30:12.317Z,5.4
2019-02-24T14:45:12.326Z,5.2
2019-02-24T15:00:12.390Z,5.2
2019-02-24T15:15:12.358Z,5.2
2019-02-24T15:30:12.460Z,5.2
2019-02-24T15:45:12.431Z,5.2
2019-02-24T16:00:12.483Z,5.1
2019-02-24T16:15:12.798Z,5
2019-02-24T16:30:12.567Z,4.7
2019-02-24T16:47:16.316Z,4.3
2019-02-24T17:00:06.761Z,3.7
2019-02-24T17:17:16.500Z,3.4
2019-02-24T17:30:07.482Z,2.9
2019-02-24T17:45:05.049Z,2.7
2019-02-24T18:00:09.977Z,2.6
2019-02-24T18:15:10.090Z,2.4
2019-02-24T18:30:10.133Z,2.2
2019-02-24T18:45:10.141Z,2.1
2019-02-24T19:00:10.206Z,1.9
2019-02-24T19:15:10.145Z,1.9
2019-02-24T19:30:10.239Z,1.8
2019-02-24T19:45:14.887Z,1.6
2019-02-24T20:00:04.841Z,1.5
2019-02-24T20:15:04.861Z,1.3
2019-02-24T20:30:04.853Z,1.2
2019-02-24T20:45:05.017Z,1.1
2019-02-24T21:00:04.995Z,1
2019-02-24T21:15:09.229Z,0.8
2019-02-24T21:30:09.271Z,0.8
2019-02-24T21:45:09.314Z,0.6
2019-02-24T22:00:09.343Z,0.6
2019-02-24T22:15:09.380Z,0.5
2019-02-24T22:30:09.443Z,0.4
2019-02-24T22:45:09.508Z,0.3
2019-02-24T23:00:09.506Z,0.2
2019-02-24T23:15:09.553Z,0.1
2019-02-24T23:30:09.605Z,0.1
2019-02-24T23:45:10.989Z,0
